createdAt,value
2022-10-22T00:01:01.437Z,93.94
2022-10-22T00:03:27.978Z,93.97
2022-10-22T00:05:54.446Z,93.59
2022-10-22T00:08:21.303Z,93.97
2022-10-22T00:10:47.842Z,94.64
2022-10-22T00:13:15.305Z,94.45
2022-10-22T00:15:44.759Z,94.82
2022-10-22T00:18:11.285Z,95.81
2022-10-22T00:20:37.878Z,95.81
2022-10-22T00:23:04.378Z,95.05
2022-10-22T00:25:31.061Z,95.13
2022-10-22T00:27:57.553Z,94.50
2022-10-22T00:30:24.028Z,93.87
2022-10-22T00:32:50.483Z,94.54
2022-10-22T00:35:17.014Z,94.04
2022-10-22T00:37:43.447Z,94.13
2022-10-22T00:40:10.492Z,94.67
2022-10-22T00:42:36.974Z,94.30
2022-10-22T00:45:09.896Z,95.90
2022-10-22T00:48:11.123Z,96.32
2022-10-22T00:50:45.954Z,96.36
2022-10-22T00:53:18.535Z,95.89
2022-10-22T00:55:46.580Z,96.35
2022-10-22T00:58:13.621Z,95.76
2022-10-22T01:00:40.257Z,95.52
2022-10-22T01:03:08.195Z,95.81
2022-10-22T01:05:42.840Z,98.08
2022-10-22T01:08:17.397Z,98.86
2022-10-22T01:10:58.262Z,99.60
2022-10-22T01:13:48.649Z,99.11
2022-10-22T01:16:39.311Z,100.00
2022-10-22T01:19:36.184Z,99.62
2022-10-22T01:22:17.758Z,98.17
2022-10-22T01:25:00.628Z,99.36
2022-10-22T01:27:45.400Z,98.28
2022-10-22T01:30:14.138Z,97.53
2022-10-22T01:32:48.292Z,96.89
2022-10-22T01:35:18.259Z,96.02
2022-10-22T01:37:46.366Z,95.49
2022-10-22T01:40:15.281Z,94.65
2022-10-22T01:42:41.927Z,93.99
2022-10-22T01:45:15.042Z,94.23
2022-10-22T01:47:50.290Z,93.79
2022-10-22T01:50:40.042Z,93.41
2022-10-22T01:53:18.638Z,92.99
2022-10-22T01:56:16.091Z,93.82
2022-10-22T01:58:58.077Z,93.61
2022-10-22T02:01:50.392Z,94.17
2022-10-22T02:04:38.176Z,93.95
2022-10-22T02:07:07.927Z,93.43
2022-10-22T02:09:34.987Z,93.40
2022-10-22T02:14:34.394Z,93.22
2022-10-22T02:17:01.477Z,93.52
2022-10-22T02:19:34.224Z,94.31
2022-10-22T02:22:00.795Z,95.14
2022-10-22T02:24:27.528Z,95.59
2022-10-22T02:27:22.927Z,94.84
2022-10-22T02:30:07.625Z,94.49
2022-10-22T02:33:02.926Z,95.33
2022-10-22T02:35:30.527Z,97.47
2022-10-22T02:37:57.893Z,98.85
2022-10-22T02:40:24.785Z,98.63
2022-10-22T02:42:51.667Z,98.46
2022-10-22T02:45:19.633Z,99.20
2022-10-22T02:47:46.291Z,99.45
2022-10-22T02:50:13.123Z,97.80
2022-10-22T02:52:39.861Z,98.18
2022-10-22T02:55:08.261Z,97.33
2022-10-22T02:57:34.716Z,96.17
2022-10-22T03:00:01.185Z,95.40
2022-10-22T03:02:27.759Z,94.80
2022-10-22T03:04:54.239Z,93.75
2022-10-22T03:07:20.675Z,94.61
2022-10-22T03:09:47.137Z,95.05
2022-10-22T03:12:13.713Z,94.53
2022-10-22T03:14:40.243Z,94.41
2022-10-22T03:17:06.728Z,94.04
2022-10-22T03:19:33.339Z,93.93
2022-10-22T03:22:05.882Z,93.75
2022-10-22T03:24:36.611Z,93.68
2022-10-22T03:27:03.079Z,93.79
2022-10-22T03:29:32.225Z,93.47
2022-10-22T03:31:58.727Z,94.42
2022-10-22T03:34:25.174Z,94.46
2022-10-22T03:36:52.062Z,93.93
2022-10-22T03:39:18.969Z,95.14
2022-10-22T03:41:46.545Z,94.72
2022-10-22T03:44:13.074Z,93.82
2022-10-22T03:46:39.633Z,94.60
2022-10-22T03:49:06.065Z,94.57
2022-10-22T03:51:32.568Z,95.63
2022-10-22T03:53:59.063Z,95.60
2022-10-22T03:56:26.176Z,95.20
2022-10-22T03:58:56.279Z,95.06
2022-10-22T04:01:23.476Z,94.79
2022-10-22T04:03:50.246Z,95.27
2022-10-22T04:06:16.951Z,95.44
2022-10-22T04:08:45.225Z,95.08
2022-10-22T04:11:12.923Z,95.09
2022-10-22T04:13:58.926Z,95.42
2022-10-22T04:16:27.560Z,94.77
2022-10-22T04:18:57.213Z,95.25
2022-10-22T04:21:24.491Z,94.92
2022-10-22T04:23:52.824Z,95.13
2022-10-22T04:26:20.615Z,94.39
2022-10-22T04:28:48.638Z,95.15
2022-10-22T04:31:17.919Z,95.31
2022-10-22T04:33:44.624Z,94.56
2022-10-22T04:36:16.009Z,94.00
2022-10-22T04:38:43.767Z,94.58
2022-10-22T04:41:15.106Z,94.73
2022-10-22T04:43:42.600Z,94.07
2022-10-22T04:46:09.908Z,94.86
2022-10-22T04:48:39.904Z,94.45
2022-10-22T04:51:06.695Z,93.22
2022-10-22T04:53:34.310Z,92.01
2022-10-22T04:56:33.372Z,91.84
2022-10-22T04:59:01.754Z,91.17
2022-10-22T05:01:31.565Z,91.02
2022-10-22T05:04:00.406Z,90.55
2022-10-22T05:06:27.150Z,90.49
2022-10-22T05:08:55.450Z,90.29
2022-10-22T05:11:25.553Z,90.16
2022-10-22T05:13:51.917Z,90.88
2022-10-22T05:16:18.991Z,90.69
2022-10-22T05:18:45.548Z,90.71
2022-10-22T05:21:14.755Z,90.20
2022-10-22T05:23:41.875Z,90.99
2022-10-22T05:26:10.282Z,91.21
2022-10-22T05:28:37.256Z,91.22
2022-10-22T05:31:04.944Z,90.84
2022-10-22T05:33:32.724Z,90.30
2022-10-22T05:35:59.824Z,90.39
2022-10-22T05:38:26.385Z,91.33
2022-10-22T05:41:03.741Z,90.85
2022-10-22T05:43:30.431Z,91.99
2022-10-22T05:46:01.898Z,92.40
2022-10-22T05:48:28.527Z,93.21
2022-10-22T05:50:55.034Z,92.22
2022-10-22T05:53:21.644Z,92.25
2022-10-22T05:55:48.421Z,92.10
2022-10-22T05:58:15.037Z,93.41
2022-10-22T06:00:41.988Z,93.11
2022-10-22T06:03:10.943Z,92.88
2022-10-22T06:05:38.055Z,92.09
2022-10-22T06:08:04.941Z,91.78
2022-10-22T06:10:31.693Z,92.12
2022-10-22T06:12:58.188Z,92.30
2022-10-22T06:15:24.956Z,91.01
2022-10-22T06:17:51.416Z,90.84
2022-10-22T06:20:17.942Z,90.29
2022-10-22T06:22:44.401Z,90.72
2022-10-22T06:25:10.868Z,91.90
2022-10-22T06:27:37.301Z,91.12
2022-10-22T06:30:04.177Z,92.15
2022-10-22T06:32:31.229Z,92.88
2022-10-22T06:34:57.703Z,93.14
2022-10-22T06:37:24.208Z,92.48
2022-10-22T06:39:51.085Z,91.97
2022-10-22T06:42:17.585Z,90.75
2022-10-22T06:44:44.388Z,91.61
2022-10-22T06:47:11.022Z,91.97
2022-10-22T06:49:37.628Z,92.83
2022-10-22T06:52:04.283Z,93.35
2022-10-22T06:54:30.911Z,94.14
2022-10-22T06:56:57.368Z,94.72
2022-10-22T06:59:24.076Z,94.40
2022-10-22T07:01:53.387Z,94.39
2022-10-22T07:04:19.865Z,93.96
2022-10-22T07:06:46.334Z,93.22
2022-10-22T07:09:13.407Z,92.34
2022-10-22T07:11:42.744Z,92.23
2022-10-22T07:14:09.777Z,91.60
2022-10-22T07:16:36.346Z,90.51
2022-10-22T07:19:04.059Z,90.02
2022-10-22T07:21:31.165Z,88.49
2022-10-22T07:23:58.323Z,87.56
2022-10-22T07:26:25.046Z,85.74
2022-10-22T07:28:51.912Z,85.12
2022-10-22T07:31:21.224Z,84.74
2022-10-22T07:33:47.722Z,83.11
2022-10-22T07:36:15.612Z,82.67
2022-10-22T07:38:42.110Z,83.09
2022-10-22T07:41:08.601Z,84.04
2022-10-22T07:43:35.232Z,85.29
2022-10-22T07:46:01.686Z,85.07
2022-10-22T07:48:28.646Z,85.97
2022-10-22T07:50:55.286Z,86.98
2022-10-22T07:53:24.561Z,86.87
2022-10-22T07:55:51.839Z,86.10
2022-10-22T07:58:19.207Z,86.16
2022-10-22T08:00:46.303Z,85.09
2022-10-22T08:03:15.523Z,84.78
2022-10-22T08:05:42.492Z,83.53
2022-10-22T08:08:16.235Z,83.27
2022-10-22T08:10:43.561Z,82.14
2022-10-22T08:13:13.078Z,82.49
2022-10-22T08:15:40.260Z,83.20
2022-10-22T08:18:06.927Z,85.76
2022-10-22T08:20:33.455Z,84.21
2022-10-22T08:23:00.135Z,84.16
2022-10-22T08:25:27.230Z,82.98
2022-10-22T08:27:54.114Z,83.61
2022-10-22T08:30:20.686Z,83.57
2022-10-22T08:32:49.333Z,83.60
2022-10-22T08:35:18.128Z,81.82
2022-10-22T08:37:44.788Z,82.23
2022-10-22T08:40:21.730Z,82.52
2022-10-22T08:42:54.376Z,83.94
2022-10-22T08:45:34.467Z,79.79
2022-10-22T08:48:13.505Z,81.41
2022-10-22T08:50:44.084Z,80.97
2022-10-22T08:53:16.475Z,83.68
2022-10-22T08:55:43.086Z,84.69
2022-10-22T08:58:22.218Z,82.78
2022-10-22T09:01:13.352Z,81.54
2022-10-22T09:04:02.007Z,80.40
2022-10-22T09:06:31.557Z,81.23
2022-10-22T09:08:59.883Z,81.64
2022-10-22T09:11:33.472Z,84.33
2022-10-22T09:14:00.844Z,82.31
2022-10-22T09:16:36.508Z,84.86
2022-10-22T09:19:32.887Z,84.19
2022-10-22T09:22:14.381Z,83.80
2022-10-22T09:24:48.676Z,82.65
2022-10-22T09:27:19.654Z,82.00
2022-10-22T09:29:48.578Z,82.59
2022-10-22T09:32:20.206Z,83.27
2022-10-22T09:34:49.061Z,84.38
2022-10-22T09:37:19.844Z,84.72
2022-10-22T09:39:55.999Z,82.67
2022-10-22T09:42:23.011Z,83.76
2022-10-22T09:44:58.823Z,83.49
2022-10-22T09:47:43.570Z,79.63
2022-10-22T09:50:28.681Z,80.20
2022-10-22T09:53:17.919Z,80.12
2022-10-22T09:55:46.035Z,80.03
2022-10-22T09:58:13.918Z,81.08
2022-10-22T10:00:43.661Z,78.69
2022-10-22T10:03:17.735Z,78.92
2022-10-22T10:05:47.679Z,79.55
2022-10-22T10:08:14.997Z,80.50
2022-10-22T10:11:07.798Z,79.50
2022-10-22T10:14:09.784Z,78.33
2022-10-22T10:17:28.724Z,77.47
2022-10-22T10:19:59.976Z,78.88
2022-10-22T10:22:41.632Z,79.50
2022-10-22T10:25:26.695Z,78.84
2022-10-22T10:28:17.767Z,77.23
2022-10-22T10:30:54.810Z,76.94
2022-10-22T10:33:30.522Z,77.24
2022-10-22T10:36:12.527Z,81.41
2022-10-22T10:39:05.203Z,78.04
2022-10-22T10:42:02.860Z,79.36
2022-10-22T10:44:55.278Z,78.78
2022-10-22T10:47:53.932Z,77.08
2022-10-22T10:50:44.944Z,76.05
2022-10-22T10:53:35.792Z,75.12
2022-10-22T10:56:11.058Z,76.10
2022-10-22T10:58:52.385Z,72.94
2022-10-22T11:01:29.465Z,75.60
2022-10-22T11:04:21.751Z,75.84
2022-10-22T11:06:49.521Z,76.93
2022-10-22T11:09:23.033Z,76.05
2022-10-22T11:12:05.917Z,72.15
2022-10-22T11:14:37.994Z,73.15
2022-10-22T11:17:09.621Z,74.13
2022-10-22T11:20:12.379Z,72.95
2022-10-22T11:23:00.367Z,70.55
2022-10-22T11:25:34.471Z,73.16
2022-10-22T11:28:31.139Z,73.91
2022-10-22T11:31:08.517Z,73.90
2022-10-22T11:34:10.050Z,71.04
2022-10-22T11:36:42.629Z,72.22
2022-10-22T11:39:30.079Z,70.98
2022-10-22T11:41:59.044Z,71.58
2022-10-22T11:44:25.509Z,69.45
2022-10-22T11:47:08.404Z,70.28
2022-10-22T11:49:43.677Z,67.81
2022-10-22T11:52:33.098Z,69.32
2022-10-22T11:55:03.446Z,66.88
2022-10-22T11:57:38.146Z,68.83
2022-10-22T12:00:40.580Z,65.95
2022-10-22T12:03:17.587Z,66.51
2022-10-22T12:05:45.867Z,64.25
2022-10-22T12:08:20.375Z,65.26
2022-10-22T12:11:12.685Z,66.20
2022-10-22T12:14:11.974Z,65.15
2022-10-22T12:16:55.591Z,65.20
2022-10-22T12:19:32.708Z,63.65
2022-10-22T12:22:13.442Z,61.92
2022-10-22T12:24:49.226Z,64.13
2022-10-22T12:27:25.598Z,64.43
2022-10-22T12:29:57.755Z,64.21
2022-10-22T12:32:33.147Z,62.12
2022-10-22T12:35:10.536Z,63.37
2022-10-22T12:37:38.219Z,65.23
2022-10-22T12:40:22.249Z,65.25
2022-10-22T12:43:04.978Z,68.45
2022-10-22T12:45:34.760Z,67.92
2022-10-22T12:48:03.877Z,67.40
2022-10-22T12:50:40.667Z,67.18
2022-10-22T12:53:14.295Z,67.65
2022-10-22T12:55:41.361Z,67.43
2022-10-22T12:58:08.623Z,67.10
2022-10-22T13:00:35.954Z,66.48
2022-10-22T13:03:05.947Z,65.08
2022-10-22T13:05:33.068Z,66.11
2022-10-22T13:08:10.247Z,66.33
2022-10-22T13:10:47.038Z,66.81
2022-10-22T13:13:44.557Z,65.79
2022-10-22T13:16:22.546Z,64.36
2022-10-22T13:18:49.073Z,64.63
2022-10-22T13:21:45.226Z,65.14
2022-10-22T13:24:23.797Z,65.70
2022-10-22T13:26:52.573Z,65.23
2022-10-22T13:29:20.938Z,65.35
2022-10-22T13:31:51.930Z,64.05
2022-10-22T13:34:20.973Z,63.35
2022-10-22T13:36:48.370Z,64.05
2022-10-22T13:39:20.438Z,64.44
2022-10-22T13:41:47.262Z,63.48
2022-10-22T13:44:13.772Z,63.88
2022-10-22T13:46:43.531Z,65.04
2022-10-22T13:49:18.533Z,65.85
2022-10-22T13:51:45.610Z,64.49
2022-10-22T13:54:17.759Z,64.84
2022-10-22T13:56:44.568Z,62.88
2022-10-22T13:59:11.103Z,61.96
2022-10-22T14:01:38.192Z,62.43
2022-10-22T14:04:06.775Z,62.61
2022-10-22T14:09:04.280Z,61.17
2022-10-22T14:11:31.243Z,61.44
2022-10-22T14:13:57.754Z,59.68
2022-10-22T14:16:26.768Z,60.11
2022-10-22T14:18:54.539Z,61.56
2022-10-22T14:21:21.053Z,59.97
2022-10-22T14:23:48.389Z,59.09
2022-10-22T14:26:22.423Z,59.07
2022-10-22T14:29:08.734Z,58.18
2022-10-22T14:31:37.161Z,57.41
2022-10-22T14:34:04.065Z,56.19
2022-10-22T14:36:31.524Z,55.79
2022-10-22T14:38:58.006Z,58.26
2022-10-22T14:41:25.995Z,55.97
2022-10-22T14:43:52.780Z,57.73
2022-10-22T14:46:19.730Z,58.31
2022-10-22T14:48:46.668Z,55.84
2022-10-22T14:51:22.297Z,58.02
2022-10-22T14:53:48.792Z,57.56
2022-10-22T14:56:17.920Z,58.50
2022-10-22T14:58:44.557Z,59.59
2022-10-22T15:01:11.103Z,62.26
2022-10-22T15:03:38.494Z,62.82
2022-10-22T15:06:05.663Z,63.57
2022-10-22T15:08:32.359Z,63.44
2022-10-22T15:11:06.433Z,63.70
2022-10-22T15:13:33.554Z,62.66
2022-10-22T15:16:00.104Z,63.90
2022-10-22T15:18:30.607Z,62.77
2022-10-22T15:20:58.069Z,62.58
2022-10-22T15:23:24.948Z,61.16
2022-10-22T15:25:51.450Z,59.88
2022-10-22T15:28:18.307Z,59.83
2022-10-22T15:30:44.743Z,60.42
2022-10-22T15:33:11.213Z,60.69
2022-10-22T15:35:37.674Z,61.98
2022-10-22T15:38:04.176Z,62.77
2022-10-22T15:40:30.640Z,64.06
2022-10-22T15:42:57.089Z,63.67
2022-10-22T15:45:23.675Z,63.59
2022-10-22T15:47:50.395Z,64.06
2022-10-22T15:50:17.614Z,64.98
2022-10-22T15:52:44.132Z,65.04
2022-10-22T15:55:10.827Z,65.73
2022-10-22T15:57:38.599Z,67.28
2022-10-22T16:00:08.242Z,68.40
2022-10-22T16:02:34.802Z,69.04
2022-10-22T16:05:01.533Z,70.11
2022-10-22T16:07:28.134Z,70.55
2022-10-22T16:09:58.372Z,71.20
2022-10-22T16:12:24.980Z,71.73
2022-10-22T16:14:51.900Z,71.57
2022-10-22T16:17:18.488Z,71.75
2022-10-22T16:19:44.998Z,72.87
2022-10-22T16:22:11.471Z,74.00
2022-10-22T16:24:38.269Z,74.41
2022-10-22T16:27:04.845Z,74.74
2022-10-22T16:29:31.326Z,71.95
2022-10-22T16:31:57.842Z,73.68
2022-10-22T16:34:26.688Z,75.30
2022-10-22T16:36:53.700Z,75.17
2022-10-22T16:39:20.256Z,75.14
2022-10-22T16:41:46.818Z,74.39
2022-10-22T16:44:14.376Z,73.31
2022-10-22T16:46:41.489Z,73.94
2022-10-22T16:49:08.423Z,74.97
2022-10-22T16:51:36.023Z,74.63
2022-10-22T16:54:03.740Z,75.03
2022-10-22T16:56:32.215Z,72.75
2022-10-22T16:58:58.748Z,74.42
2022-10-22T17:01:27.705Z,75.05
2022-10-22T17:03:54.741Z,76.34
2022-10-22T17:06:22.168Z,75.98
2022-10-22T17:08:48.850Z,77.32
2022-10-22T17:11:18.276Z,76.48
2022-10-22T17:13:46.298Z,77.12
2022-10-22T17:16:14.015Z,75.76
2022-10-22T17:18:41.605Z,75.04
2022-10-22T17:21:09.411Z,75.02
2022-10-22T17:23:35.953Z,73.81
2022-10-22T17:26:05.120Z,73.75
2022-10-22T17:28:31.606Z,74.00
2022-10-22T17:31:02.529Z,73.50
2022-10-22T17:33:29.098Z,74.44
2022-10-22T17:35:55.584Z,74.33
2022-10-22T17:38:22.033Z,73.49
2022-10-22T17:40:48.810Z,73.99
2022-10-22T17:43:15.278Z,73.71
2022-10-22T17:45:41.729Z,74.00
2022-10-22T17:48:08.520Z,74.15
2022-10-22T17:50:35.102Z,74.96
2022-10-22T17:53:01.872Z,74.75
2022-10-22T17:55:28.317Z,74.75
2022-10-22T17:57:54.783Z,75.43
2022-10-22T18:00:21.284Z,76.29
2022-10-22T18:02:48.976Z,76.65
2022-10-22T18:05:15.504Z,77.50
2022-10-22T18:07:41.944Z,77.80
2022-10-22T18:10:08.900Z,77.79
2022-10-22T18:12:35.589Z,78.13
2022-10-22T18:15:02.781Z,78.67
2022-10-22T18:17:31.787Z,78.47
2022-10-22T18:20:00.013Z,78.24
2022-10-22T18:22:26.977Z,79.19
2022-10-22T18:24:53.529Z,79.95
2022-10-22T18:27:20.040Z,79.29
2022-10-22T18:29:49.781Z,78.19
2022-10-22T18:32:16.683Z,78.13
2022-10-22T18:34:43.510Z,77.78
2022-10-22T18:37:10.030Z,78.02
2022-10-22T18:39:36.488Z,77.84
2022-10-22T18:42:03.097Z,77.69
2022-10-22T18:44:29.570Z,78.66
2022-10-22T18:46:56.036Z,78.20
2022-10-22T18:49:22.695Z,77.03
2022-10-22T18:51:49.193Z,77.29
2022-10-22T18:54:23.192Z,77.56
2022-10-22T18:56:50.261Z,76.78
2022-10-22T18:59:21.713Z,78.35
2022-10-22T19:01:48.532Z,80.92
2022-10-22T19:04:15.154Z,82.26
2022-10-22T19:06:45.345Z,84.80
2022-10-22T19:09:13.545Z,85.79
2022-10-22T19:11:40.174Z,88.23
2022-10-22T19:14:06.890Z,87.97
2022-10-22T19:16:33.353Z,88.12
2022-10-22T19:19:02.858Z,88.90
2022-10-22T19:21:29.616Z,88.65
2022-10-22T19:23:57.382Z,89.23
2022-10-22T19:26:24.524Z,89.28
2022-10-22T19:28:50.983Z,88.18
2022-10-22T19:31:19.571Z,88.57
2022-10-22T19:33:46.077Z,88.74
2022-10-22T19:36:14.415Z,87.94
2022-10-22T19:38:43.312Z,87.74
2022-10-22T19:41:11.164Z,87.59
2022-10-22T19:43:37.733Z,86.86
2022-10-22T19:46:05.105Z,86.04
2022-10-22T19:48:31.681Z,84.87
2022-10-22T19:51:03.453Z,84.72
2022-10-22T19:53:30.837Z,83.92
2022-10-22T19:56:00.812Z,83.22
2022-10-22T19:58:28.439Z,83.64
2022-10-22T20:00:55.325Z,83.20
2022-10-22T20:03:21.981Z,83.43
2022-10-22T20:05:50.486Z,83.55
2022-10-22T20:08:20.212Z,82.55
2022-10-22T20:10:50.379Z,82.87
2022-10-22T20:13:16.772Z,83.27
2022-10-22T20:15:43.487Z,83.87
2022-10-22T20:18:09.974Z,84.50
2022-10-22T20:20:39.285Z,84.51
2022-10-22T20:23:05.894Z,84.77
2022-10-22T20:25:32.344Z,84.37
2022-10-22T20:27:58.961Z,84.12
2022-10-22T20:30:25.447Z,84.60
2022-10-22T20:32:52.011Z,84.65
2022-10-22T20:35:18.976Z,85.30
2022-10-22T20:37:46.027Z,84.94
2022-10-22T20:40:12.986Z,84.12
2022-10-22T20:42:39.986Z,83.16
2022-10-22T20:45:07.428Z,82.89
2022-10-22T20:47:44.598Z,82.54
2022-10-22T20:50:19.111Z,81.30
2022-10-22T20:52:45.743Z,81.30
2022-10-22T20:55:13.751Z,82.08
2022-10-22T20:57:40.703Z,82.27
2022-10-22T21:00:07.973Z,81.61
2022-10-22T21:02:34.788Z,81.11
2022-10-22T21:05:01.765Z,81.06
2022-10-22T21:07:28.269Z,81.25
2022-10-22T21:09:54.726Z,81.47
2022-10-22T21:12:21.214Z,81.69
2022-10-22T21:14:47.674Z,81.98
2022-10-22T21:17:14.541Z,81.81
2022-10-22T21:19:41.060Z,82.20
2022-10-22T21:22:07.930Z,82.42
2022-10-22T21:24:34.432Z,82.68
2022-10-22T21:27:00.963Z,81.60
2022-10-22T21:29:27.519Z,82.16
2022-10-22T21:31:54.020Z,82.32
2022-10-22T21:34:20.485Z,81.35
2022-10-22T21:39:19.087Z,80.13
2022-10-22T21:41:45.585Z,80.66
2022-10-22T21:44:12.107Z,80.64
2022-10-22T21:46:38.619Z,80.04
2022-10-22T21:49:05.098Z,79.56
2022-10-22T21:51:33.441Z,79.85
2022-10-22T21:54:00.166Z,80.66
2022-10-22T21:56:28.915Z,80.44
2022-10-22T21:58:55.863Z,79.68
2022-10-22T22:01:22.813Z,80.37
2022-10-22T22:03:49.700Z,80.92
2022-10-22T22:06:21.664Z,80.74
2022-10-22T22:08:49.704Z,81.40
2022-10-22T22:11:18.557Z,81.19
2022-10-22T22:13:45.857Z,82.01
2022-10-22T22:16:15.100Z,82.04
2022-10-22T22:18:42.254Z,81.55
2022-10-22T22:21:11.707Z,81.98
2022-10-22T22:23:40.411Z,82.43
2022-10-22T22:26:07.213Z,82.01
2022-10-22T22:28:34.015Z,82.10
2022-10-22T22:31:00.633Z,81.86
2022-10-22T22:33:28.453Z,81.43
2022-10-22T22:35:58.397Z,82.32
2022-10-22T22:38:24.872Z,81.79
2022-10-22T22:40:51.416Z,82.07
2022-10-22T22:43:18.405Z,81.82
2022-10-22T22:45:45.026Z,81.41
2022-10-22T22:48:12.069Z,81.55
2022-10-22T22:50:38.650Z,81.26
2022-10-22T22:53:05.110Z,80.85
2022-10-22T22:55:32.080Z,81.80
2022-10-22T22:57:58.583Z,81.74
2022-10-22T23:00:25.399Z,81.53
2022-10-22T23:02:55.426Z,81.49
2022-10-22T23:05:21.894Z,81.97
2022-10-22T23:07:48.921Z,81.33
2022-10-22T23:10:15.470Z,82.30
2022-10-22T23:12:42.102Z,82.91
2022-10-22T23:15:09.117Z,81.87
2022-10-22T23:20:08.003Z,81.23
2022-10-22T23:22:34.468Z,80.46
2022-10-22T23:25:01.094Z,81.76
2022-10-22T23:27:27.575Z,80.97
2022-10-22T23:29:54.041Z,80.92
2022-10-22T23:32:20.489Z,80.42
2022-10-22T23:34:46.963Z,81.78
2022-10-22T23:37:13.428Z,81.26
2022-10-22T23:39:40.251Z,81.23
2022-10-22T23:42:06.699Z,81.32
2022-10-22T23:44:33.240Z,80.91
2022-10-22T23:46:59.819Z,81.18
2022-10-22T23:49:26.438Z,81.03
2022-10-22T23:51:53.295Z,80.92
2022-10-22T23:54:19.761Z,80.56
2022-10-22T23:56:46.435Z,80.54
